createdAt,value
2017-07-05T00:01:10.293Z,73.12
2017-07-05T00:03:42.750Z,73.77
2017-07-05T00:06:15.181Z,73.99
2017-07-05T00:08:47.840Z,74.29
2017-07-05T00:11:20.028Z,74.68
2017-07-05T00:13:52.690Z,74.30
2017-07-05T00:16:24.805Z,73.76
2017-07-05T00:18:57.217Z,74.18
2017-07-05T00:21:29.616Z,74.39
2017-07-05T00:24:02.056Z,74.90
2017-07-05T00:26:34.411Z,74.73
2017-07-05T00:29:07.733Z,74.73
2017-07-05T00:31:40.533Z,75.03
2017-07-05T00:34:13.192Z,75.23
2017-07-05T00:36:44.950Z,75.30
2017-07-05T00:39:17.372Z,74.82
2017-07-05T00:41:49.712Z,75.19
2017-07-05T00:44:22.245Z,75.46
2017-07-05T00:46:54.396Z,75.34
2017-07-05T00:49:26.737Z,75.21
2017-07-05T00:51:59.213Z,75.46
2017-07-05T00:54:31.661Z,75.22
2017-07-05T00:57:04.993Z,75.07
2017-07-05T00:59:37.340Z,75.03
2017-07-05T01:02:09.859Z,75.00
2017-07-05T01:04:42.340Z,75.21
2017-07-05T01:07:15.528Z,75.33
2017-07-05T01:09:47.994Z,75.45
2017-07-05T01:12:20.479Z,76.16
2017-07-05T01:14:52.913Z,75.95
2017-07-05T01:17:25.207Z,76.00
2017-07-05T01:19:57.882Z,75.83
2017-07-05T01:22:30.147Z,76.15
2017-07-05T01:25:02.531Z,75.57
2017-07-05T01:27:34.978Z,75.25
2017-07-05T01:30:07.411Z,75.31
2017-07-05T01:32:39.772Z,74.61
2017-07-05T01:35:11.936Z,74.56
2017-07-05T01:37:44.413Z,73.78
2017-07-05T01:40:16.760Z,73.79
2017-07-05T01:42:49.357Z,73.61
2017-07-05T01:45:22.388Z,73.56
2017-07-05T01:47:54.545Z,73.21
2017-07-05T01:50:26.880Z,72.79
2017-07-05T01:52:59.357Z,72.63
2017-07-05T01:55:31.742Z,72.71
2017-07-05T01:58:04.047Z,72.43
2017-07-05T02:00:36.546Z,73.08
2017-07-05T02:03:09.061Z,73.52
2017-07-05T02:05:41.344Z,74.07
2017-07-05T02:08:13.799Z,74.49
2017-07-05T02:10:46.812Z,74.50
2017-07-05T02:13:18.742Z,74.67
2017-07-05T02:15:51.604Z,74.84
2017-07-05T02:18:23.780Z,74.64
2017-07-05T02:20:56.034Z,74.71
2017-07-05T02:23:28.424Z,75.23
2017-07-05T02:26:00.813Z,75.53
2017-07-05T02:28:33.173Z,76.28
2017-07-05T02:31:05.641Z,76.41
2017-07-05T02:33:38.056Z,76.43
2017-07-05T02:36:10.410Z,76.54
2017-07-05T02:38:43.026Z,76.69
2017-07-05T02:41:15.449Z,76.82
2017-07-05T02:43:47.755Z,76.91
2017-07-05T02:46:20.083Z,76.93
2017-07-05T02:48:52.520Z,76.88
2017-07-05T02:51:24.993Z,76.56
2017-07-05T02:53:57.424Z,76.48
2017-07-05T02:56:29.726Z,76.82
2017-07-05T02:59:02.216Z,76.81
2017-07-05T03:01:34.581Z,76.83
2017-07-05T03:04:06.882Z,76.84
2017-07-05T03:06:39.623Z,76.76
2017-07-05T03:09:11.905Z,76.82
2017-07-05T03:11:44.181Z,76.64
2017-07-05T03:14:16.731Z,77.03
2017-07-05T03:16:49.109Z,77.16
2017-07-05T03:19:22.539Z,76.74
2017-07-05T03:21:54.755Z,76.79
2017-07-05T03:24:28.482Z,76.82
2017-07-05T03:27:00.684Z,76.85
2017-07-05T03:29:33.021Z,76.78
2017-07-05T03:32:05.410Z,76.80
2017-07-05T03:34:38.869Z,76.87
2017-07-05T03:37:11.260Z,76.45
2017-07-05T03:39:43.637Z,76.83
2017-07-05T03:42:16.038Z,76.81
2017-07-05T03:44:48.548Z,76.43
2017-07-05T03:47:20.864Z,76.34
2017-07-05T03:50:00.435Z,76.24
2017-07-05T03:52:32.881Z,75.69
2017-07-05T03:55:05.397Z,75.63
2017-07-05T03:57:37.775Z,74.73
2017-07-05T04:00:10.557Z,74.79
2017-07-05T04:02:42.461Z,74.73
2017-07-05T04:05:14.877Z,75.15
2017-07-05T04:07:47.234Z,74.97
2017-07-05T04:10:20.669Z,75.19
2017-07-05T04:12:53.163Z,75.16
2017-07-05T04:15:25.693Z,75.25
2017-07-05T04:17:58.749Z,75.31
2017-07-05T04:20:31.462Z,75.09
2017-07-05T04:23:03.920Z,75.27
2017-07-05T04:25:36.342Z,75.24
2017-07-05T04:28:08.800Z,75.03
2017-07-05T04:30:41.147Z,75.08
2017-07-05T04:33:13.540Z,74.38
2017-07-05T04:35:45.885Z,74.64
2017-07-05T04:38:18.201Z,74.61
2017-07-05T04:40:50.560Z,75.16
2017-07-05T04:43:23.032Z,74.52
2017-07-05T04:45:55.273Z,74.18
2017-07-05T04:48:27.587Z,73.76
2017-07-05T04:51:00.340Z,73.59
2017-07-05T04:53:32.446Z,73.69
2017-07-05T04:56:04.880Z,73.10
2017-07-05T04:58:38.326Z,73.30
2017-07-05T05:01:10.878Z,73.06
2017-07-05T05:03:43.295Z,72.73
2017-07-05T05:06:15.710Z,72.26
2017-07-05T05:08:47.977Z,71.88
2017-07-05T05:11:20.757Z,71.87
2017-07-05T05:13:52.818Z,71.48
2017-07-05T05:16:25.210Z,70.72
2017-07-05T05:18:57.649Z,70.86
2017-07-05T05:21:30.062Z,70.80
2017-07-05T05:24:02.324Z,70.35
2017-07-05T05:26:34.696Z,69.69
2017-07-05T05:29:07.129Z,69.52
2017-07-05T05:31:39.449Z,69.37
2017-07-05T05:34:11.719Z,70.36
2017-07-05T05:36:45.161Z,70.00
2017-07-05T05:39:17.492Z,70.24
2017-07-05T05:41:49.925Z,70.73
2017-07-05T05:44:22.269Z,70.27
2017-07-05T05:46:54.817Z,69.99
2017-07-05T05:49:27.109Z,69.24
2017-07-05T05:51:59.434Z,68.13
2017-07-05T05:54:31.905Z,68.92
2017-07-05T05:57:04.225Z,67.58
2017-07-05T05:59:36.598Z,67.33
2017-07-05T06:02:08.967Z,67.61
2017-07-05T06:04:41.197Z,67.20
2017-07-05T06:07:13.681Z,68.11
2017-07-05T06:09:46.052Z,68.12
2017-07-05T06:12:18.365Z,66.40
2017-07-05T06:14:50.803Z,67.01
2017-07-05T06:17:23.169Z,65.79
2017-07-05T06:19:55.592Z,66.29
2017-07-05T06:22:27.923Z,66.05
2017-07-05T06:25:00.323Z,67.30
2017-07-05T06:27:32.845Z,66.90
2017-07-05T06:30:05.213Z,68.01
2017-07-05T06:32:37.670Z,68.48
2017-07-05T06:35:10.049Z,68.21
2017-07-05T06:37:42.477Z,68.52
2017-07-05T06:40:14.849Z,68.04
2017-07-05T06:42:47.313Z,68.00
2017-07-05T06:45:19.752Z,66.73
2017-07-05T06:47:53.131Z,66.35
2017-07-05T06:50:25.782Z,66.13
2017-07-05T06:52:57.920Z,64.42
2017-07-05T06:55:30.327Z,64.12
2017-07-05T06:58:02.739Z,63.68
2017-07-05T07:00:35.246Z,61.92
2017-07-05T07:03:07.802Z,60.14
2017-07-05T07:05:40.201Z,58.87
2017-07-05T07:08:12.666Z,58.58
2017-07-05T07:10:44.956Z,57.40
2017-07-05T07:13:17.717Z,57.18
2017-07-05T07:15:49.705Z,55.69
2017-07-05T07:18:22.108Z,56.19
2017-07-05T07:20:54.553Z,57.30
2017-07-05T07:23:26.939Z,58.11
2017-07-05T07:26:00.470Z,58.29
2017-07-05T07:28:38.914Z,60.14
2017-07-05T07:31:11.332Z,61.03
2017-07-05T07:33:43.405Z,61.53
2017-07-05T07:36:15.773Z,61.54
2017-07-05T07:38:48.156Z,61.12
2017-07-05T07:41:20.434Z,61.63
2017-07-05T07:43:53.207Z,63.67
2017-07-05T07:46:25.841Z,63.26
2017-07-05T07:48:57.850Z,62.38
2017-07-05T07:51:30.385Z,62.96
2017-07-05T07:54:02.883Z,63.98
2017-07-05T07:56:35.225Z,63.76
2017-07-05T07:59:07.641Z,64.01
2017-07-05T08:01:40.068Z,63.96
2017-07-05T08:04:12.423Z,65.03
2017-07-05T08:06:44.901Z,63.89
2017-07-05T08:09:17.298Z,63.99
2017-07-05T08:11:50.521Z,64.32
2017-07-05T08:14:23.013Z,63.88
2017-07-05T08:16:55.694Z,63.80
2017-07-05T08:19:27.889Z,63.13
2017-07-05T08:22:01.023Z,63.36
2017-07-05T08:24:33.860Z,63.66
2017-07-05T08:27:06.060Z,62.37
2017-07-05T08:29:38.441Z,62.15
2017-07-05T08:32:10.794Z,61.18
2017-07-05T08:34:43.346Z,61.68
2017-07-05T08:37:15.748Z,62.90
2017-07-05T08:39:48.200Z,63.24
2017-07-05T08:42:20.629Z,63.47
2017-07-05T08:44:53.040Z,62.12
2017-07-05T08:47:25.649Z,62.21
2017-07-05T08:49:57.996Z,60.13
2017-07-05T08:52:30.411Z,59.58
2017-07-05T08:55:02.786Z,59.06
2017-07-05T08:57:35.112Z,59.61
2017-07-05T09:00:07.542Z,58.94
2017-07-05T09:02:39.848Z,58.68
2017-07-05T09:05:12.191Z,58.11
2017-07-05T09:07:44.686Z,58.23
2017-07-05T09:10:17.196Z,58.59
2017-07-05T09:12:49.546Z,56.27
2017-07-05T09:15:21.945Z,54.79
2017-07-05T09:17:54.317Z,54.43
2017-07-05T09:20:26.598Z,54.49
2017-07-05T09:22:58.843Z,53.10
2017-07-05T09:25:31.310Z,53.85
2017-07-05T09:28:03.645Z,52.65
2017-07-05T09:30:36.403Z,50.46
2017-07-05T09:33:08.532Z,50.58
2017-07-05T09:35:40.976Z,51.24
2017-07-05T09:38:13.457Z,49.35
2017-07-05T09:40:45.790Z,47.48
2017-07-05T09:43:18.156Z,45.28
2017-07-05T09:45:50.636Z,44.73
2017-07-05T09:48:23.141Z,47.75
2017-07-05T09:50:55.357Z,47.18
2017-07-05T09:53:28.038Z,46.74
2017-07-05T09:56:01.160Z,46.11
2017-07-05T09:58:33.803Z,45.32
2017-07-05T10:01:06.189Z,40.83
2017-07-05T10:03:38.789Z,37.36
2017-07-05T10:06:11.178Z,37.21
2017-07-05T10:08:44.062Z,35.32
2017-07-05T10:11:15.977Z,36.68
2017-07-05T10:13:48.386Z,37.29
2017-07-05T10:16:20.978Z,36.21
2017-07-05T10:18:53.394Z,36.14
2017-07-05T10:21:25.826Z,34.64
2017-07-05T10:23:58.246Z,35.24
2017-07-05T10:26:35.806Z,37.28
2017-07-05T10:29:08.051Z,39.07
2017-07-05T10:31:40.727Z,39.22
2017-07-05T10:34:12.958Z,37.98
2017-07-05T10:36:45.302Z,38.75
2017-07-05T10:39:17.637Z,39.40
2017-07-05T10:41:49.958Z,40.41
2017-07-05T10:44:22.277Z,38.53
2017-07-05T10:46:54.753Z,37.92
2017-07-05T10:49:27.113Z,37.44
2017-07-05T10:51:59.501Z,38.34
2017-07-05T10:54:31.705Z,37.24
2017-07-05T10:57:03.957Z,38.07
2017-07-05T10:59:36.649Z,38.26
2017-07-05T11:02:08.697Z,37.27
2017-07-05T11:04:41.730Z,34.67
2017-07-05T11:07:14.469Z,35.40
2017-07-05T11:09:46.805Z,34.42
2017-07-05T11:12:19.195Z,34.73
2017-07-05T11:14:51.460Z,35.53
2017-07-05T11:17:24.224Z,33.56
2017-07-05T11:19:56.297Z,33.33
2017-07-05T11:22:28.740Z,33.77
2017-07-05T11:25:01.329Z,33.96
2017-07-05T11:27:33.637Z,35.14
2017-07-05T11:30:06.487Z,34.78
2017-07-05T11:32:38.718Z,34.25
2017-07-05T11:35:11.464Z,34.71
2017-07-05T11:37:43.618Z,35.63
2017-07-05T11:40:15.979Z,33.13
2017-07-05T11:42:48.968Z,33.79
2017-07-05T11:45:21.723Z,34.19
2017-07-05T11:47:54.171Z,33.88
2017-07-05T11:50:26.632Z,33.48
2017-07-05T11:52:59.022Z,33.67
2017-07-05T11:55:31.430Z,34.72
2017-07-05T11:58:03.822Z,33.13
2017-07-05T12:00:36.166Z,34.68
2017-07-05T12:03:08.801Z,35.35
2017-07-05T12:05:41.002Z,34.75
2017-07-05T12:08:14.289Z,34.06
2017-07-05T12:10:46.856Z,35.01
2017-07-05T12:13:19.264Z,34.06
2017-07-05T12:15:51.576Z,35.32
2017-07-05T12:18:24.273Z,35.12
2017-07-05T12:20:56.457Z,33.39
2017-07-05T12:23:28.744Z,33.61
2017-07-05T12:26:01.548Z,31.77
2017-07-05T12:28:33.543Z,31.70
2017-07-05T12:31:05.950Z,31.24
2017-07-05T12:33:38.337Z,31.59
2017-07-05T12:36:10.814Z,30.79
2017-07-05T12:38:43.311Z,28.33
2017-07-05T12:41:15.750Z,30.96
2017-07-05T12:43:48.430Z,30.63
2017-07-05T12:46:21.531Z,30.40
2017-07-05T12:48:53.956Z,31.18
2017-07-05T12:51:26.315Z,31.13
2017-07-05T12:53:58.618Z,32.43
2017-07-05T12:56:30.924Z,32.82
2017-07-05T12:59:04.338Z,33.21
2017-07-05T13:01:36.773Z,30.83
2017-07-05T13:04:09.173Z,29.56
2017-07-05T13:06:41.885Z,29.51
2017-07-05T13:09:14.013Z,30.01
2017-07-05T13:11:46.328Z,30.42
2017-07-05T13:16:58.104Z,33.14
2017-07-05T13:19:30.573Z,34.66
2017-07-05T13:22:03.010Z,35.34
2017-07-05T13:24:35.398Z,37.59
2017-07-05T13:27:07.833Z,37.08
2017-07-05T13:29:40.241Z,37.83
2017-07-05T13:32:12.517Z,37.40
2017-07-05T13:34:45.005Z,36.12
2017-07-05T13:37:17.350Z,36.79
2017-07-05T13:39:49.872Z,35.94
2017-07-05T13:42:22.310Z,36.33
2017-07-05T13:45:01.672Z,37.68
2017-07-05T13:47:34.178Z,35.88
2017-07-05T13:50:06.635Z,35.57
2017-07-05T13:52:38.995Z,35.75
2017-07-05T13:55:11.414Z,35.77
2017-07-05T13:57:43.940Z,36.39
2017-07-05T14:00:16.190Z,35.83
2017-07-05T14:02:48.592Z,36.87
2017-07-05T14:05:21.060Z,37.80
2017-07-05T14:07:53.581Z,37.25
2017-07-05T14:10:25.937Z,36.66
2017-07-05T14:12:58.436Z,36.37
2017-07-05T14:15:30.805Z,35.20
2017-07-05T14:18:03.143Z,36.84
2017-07-05T14:20:35.584Z,35.25
2017-07-05T14:23:08.093Z,34.52
2017-07-05T14:25:40.496Z,35.31
2017-07-05T14:28:12.920Z,34.15
2017-07-05T14:30:45.461Z,35.65
2017-07-05T14:33:17.766Z,37.13
2017-07-05T14:35:50.457Z,36.92
2017-07-05T14:38:22.617Z,36.99
2017-07-05T14:40:54.938Z,36.49
2017-07-05T14:43:27.173Z,36.94
2017-07-05T14:45:59.665Z,37.10
2017-07-05T14:48:32.209Z,38.08
2017-07-05T14:51:04.589Z,39.16
2017-07-05T14:53:36.993Z,38.59
2017-07-05T14:56:09.317Z,39.24
2017-07-05T14:58:41.648Z,37.83
2017-07-05T15:01:14.510Z,39.66
2017-07-05T15:03:46.340Z,39.67
2017-07-05T15:06:18.782Z,39.58
2017-07-05T15:08:51.198Z,39.95
2017-07-05T15:11:23.725Z,39.02
2017-07-05T15:13:56.141Z,39.24
2017-07-05T15:16:28.492Z,38.95
2017-07-05T15:19:00.680Z,38.46
2017-07-05T15:21:33.111Z,39.53
2017-07-05T15:24:05.464Z,39.48
2017-07-05T15:26:37.870Z,39.54
2017-07-05T15:29:10.082Z,40.18
2017-07-05T15:31:42.572Z,39.99
2017-07-05T15:34:14.961Z,39.90
2017-07-05T15:36:48.097Z,39.70
2017-07-05T15:39:20.909Z,40.12
2017-07-05T15:41:53.018Z,39.21
2017-07-05T15:44:25.512Z,40.06
2017-07-05T15:46:57.964Z,39.94
2017-07-05T15:49:30.367Z,40.33
2017-07-05T15:52:02.696Z,40.55
2017-07-05T15:54:35.268Z,40.04
2017-07-05T15:57:07.472Z,39.95
2017-07-05T15:59:39.836Z,40.38
2017-07-05T16:02:12.285Z,40.04
2017-07-05T16:04:45.580Z,39.92
2017-07-05T16:07:17.989Z,40.99
2017-07-05T16:09:50.331Z,40.70
2017-07-05T16:12:22.717Z,41.15
2017-07-05T16:14:55.166Z,41.43
2017-07-05T16:17:27.677Z,41.51
2017-07-05T16:20:01.009Z,41.81
2017-07-05T16:22:33.566Z,42.59
2017-07-05T16:25:06.107Z,42.80
2017-07-05T16:27:38.176Z,42.31
2017-07-05T16:30:10.556Z,43.22
2017-07-05T16:32:42.971Z,43.78
2017-07-05T16:35:15.318Z,44.48
2017-07-05T16:37:47.684Z,44.20
2017-07-05T16:40:20.021Z,44.13
2017-07-05T16:42:52.368Z,43.84
2017-07-05T16:45:24.699Z,43.74
2017-07-05T16:47:56.989Z,44.06
2017-07-05T16:50:29.380Z,43.77
2017-07-05T16:53:01.777Z,43.93
2017-07-05T16:55:34.976Z,44.29
2017-07-05T16:58:07.513Z,44.91
2017-07-05T17:00:39.841Z,45.51
2017-07-05T17:03:12.337Z,45.97
2017-07-05T17:05:44.667Z,46.05
2017-07-05T17:08:17.203Z,46.44
2017-07-05T17:10:49.690Z,46.51
2017-07-05T17:13:22.083Z,47.17
2017-07-05T17:15:54.601Z,46.80
2017-07-05T17:18:27.050Z,46.88
2017-07-05T17:20:59.205Z,47.48
2017-07-05T17:23:31.524Z,47.64
2017-07-05T17:26:03.911Z,47.96
2017-07-05T17:28:36.170Z,48.81
2017-07-05T17:31:08.512Z,48.97
2017-07-05T17:33:40.997Z,48.87
2017-07-05T17:36:13.683Z,49.26
2017-07-05T17:38:45.873Z,49.95
2017-07-05T17:41:18.273Z,49.72
2017-07-05T17:43:51.346Z,50.02
2017-07-05T17:46:23.986Z,49.42
2017-07-05T17:48:56.758Z,49.72
2017-07-05T17:51:28.574Z,50.22
2017-07-05T17:54:00.933Z,49.89
2017-07-05T17:56:33.167Z,49.48
2017-07-05T17:59:05.617Z,49.82
2017-07-05T18:01:37.854Z,50.13
2017-07-05T18:04:10.217Z,49.98
2017-07-05T18:06:42.528Z,50.47
2017-07-05T18:09:14.878Z,50.48
2017-07-05T18:11:47.269Z,50.41
2017-07-05T18:14:19.546Z,51.06
2017-07-05T18:16:52.114Z,51.99
2017-07-05T18:19:24.245Z,52.01
2017-07-05T18:21:56.087Z,52.83
2017-07-05T18:24:28.475Z,53.15
2017-07-05T18:27:00.777Z,54.01
2017-07-05T18:29:33.237Z,53.92
2017-07-05T18:32:06.453Z,53.99
2017-07-05T18:34:38.934Z,54.05
2017-07-05T18:37:11.378Z,54.23
2017-07-05T18:39:43.809Z,55.23
2017-07-05T18:42:16.199Z,55.68
2017-07-05T18:44:48.539Z,55.85
2017-07-05T18:47:20.897Z,56.57
2017-07-05T18:49:53.340Z,56.81
2017-07-05T18:52:25.813Z,56.65
2017-07-05T18:54:58.354Z,57.21
2017-07-05T18:57:30.862Z,57.48
2017-07-05T19:00:03.006Z,57.51
2017-07-05T19:02:35.610Z,57.78
2017-07-05T19:05:07.790Z,58.10
2017-07-05T19:07:40.169Z,57.96
2017-07-05T19:10:12.581Z,58.46
2017-07-05T19:12:44.920Z,59.25
2017-07-05T19:15:17.399Z,59.61
2017-07-05T19:17:49.821Z,60.32
2017-07-05T19:20:22.865Z,60.74
2017-07-05T19:22:54.747Z,61.18
2017-07-05T19:25:27.375Z,61.66
2017-07-05T19:27:59.630Z,61.94
2017-07-05T19:30:32.301Z,62.28
2017-07-05T19:33:04.608Z,62.36
2017-07-05T19:35:37.824Z,62.63
2017-07-05T19:38:10.988Z,63.52
2017-07-05T19:40:43.509Z,63.46
2017-07-05T19:43:15.926Z,63.91
2017-07-05T19:45:48.301Z,64.21
2017-07-05T19:48:21.910Z,64.25
2017-07-05T19:50:54.505Z,64.39
2017-07-05T19:53:26.839Z,64.45
2017-07-05T19:55:59.244Z,64.67
2017-07-05T19:58:32.605Z,64.97
2017-07-05T20:01:05.193Z,65.05
2017-07-05T20:03:37.490Z,65.22
2017-07-05T20:06:10.162Z,65.42
2017-07-05T20:08:42.271Z,65.99
2017-07-05T20:11:14.671Z,66.51
2017-07-05T20:13:46.945Z,66.42
2017-07-05T20:16:20.213Z,66.49
2017-07-05T20:18:52.750Z,66.20
2017-07-05T20:21:25.141Z,66.24
2017-07-05T20:23:57.793Z,66.35
2017-07-05T20:26:29.848Z,66.46
2017-07-05T20:29:03.176Z,66.25
2017-07-05T20:31:35.892Z,66.68
2017-07-05T20:34:08.276Z,66.86
2017-07-05T20:36:40.717Z,66.87
2017-07-05T20:39:13.053Z,66.84
2017-07-05T20:41:45.442Z,67.03
2017-07-05T20:44:17.750Z,67.31
2017-07-05T20:46:50.121Z,67.34
2017-07-05T20:49:22.464Z,67.41
2017-07-05T20:51:55.641Z,67.27
2017-07-05T20:54:28.290Z,67.40
2017-07-05T20:57:00.624Z,67.14
2017-07-05T20:59:33.053Z,67.22
2017-07-05T21:02:05.482Z,66.88
2017-07-05T21:04:38.007Z,67.16
2017-07-05T21:07:10.400Z,66.77
2017-07-05T21:09:42.893Z,66.66
2017-07-05T21:12:15.253Z,67.10
2017-07-05T21:14:47.770Z,66.91
2017-07-05T21:17:27.960Z,67.17
2017-07-05T21:20:00.611Z,67.25
2017-07-05T21:22:33.066Z,67.49
2017-07-05T21:25:05.370Z,67.59
2017-07-05T21:27:37.771Z,67.80
2017-07-05T21:30:10.201Z,67.66
2017-07-05T21:32:42.645Z,67.96
2017-07-05T21:35:15.100Z,67.85
2017-07-05T21:37:47.612Z,68.06
2017-07-05T21:40:20.065Z,68.10
2017-07-05T21:42:52.514Z,68.67
2017-07-05T21:45:28.475Z,69.13
2017-07-05T21:48:03.505Z,69.25
2017-07-05T21:50:35.994Z,69.36
2017-07-05T21:53:08.384Z,69.64
2017-07-05T21:55:40.840Z,69.66
2017-07-05T21:58:13.227Z,70.08
2017-07-05T22:00:45.600Z,70.05
2017-07-05T22:03:18.012Z,70.21
2017-07-05T22:05:50.384Z,70.44
2017-07-05T22:08:22.793Z,71.39
2017-07-05T22:10:55.165Z,71.73
2017-07-05T22:13:27.542Z,71.75
2017-07-05T22:15:59.934Z,72.38
2017-07-05T22:18:32.326Z,72.37
2017-07-05T22:21:04.801Z,72.25
2017-07-05T22:23:37.173Z,72.30
2017-07-05T22:26:09.742Z,72.42
2017-07-05T22:28:42.237Z,73.22
2017-07-05T22:31:14.591Z,73.21
2017-07-05T22:33:47.482Z,73.30
2017-07-05T22:36:21.146Z,73.30
2017-07-05T22:38:53.477Z,73.84
2017-07-05T22:41:25.923Z,74.16
2017-07-05T22:43:58.313Z,74.13
2017-07-05T22:46:30.695Z,74.12
2017-07-05T22:49:04.128Z,74.27
2017-07-05T22:51:36.530Z,74.30
2017-07-05T22:54:08.840Z,74.74
2017-07-05T22:56:41.304Z,75.32
2017-07-05T22:59:14.086Z,75.27
2017-07-05T23:01:46.354Z,75.48
2017-07-05T23:04:18.466Z,75.05
2017-07-05T23:06:51.191Z,75.18
2017-07-05T23:09:23.287Z,75.05
2017-07-05T23:11:55.735Z,74.99
2017-07-05T23:14:28.393Z,75.35
2017-07-05T23:17:00.500Z,75.32
2017-07-05T23:19:32.978Z,75.05
2017-07-05T23:22:05.312Z,75.35
2017-07-05T23:24:37.753Z,74.89
2017-07-05T23:27:10.171Z,75.43
2017-07-05T23:29:42.668Z,76.10
2017-07-05T23:32:15.144Z,76.32
2017-07-05T23:34:48.540Z,76.59
2017-07-05T23:37:21.014Z,76.75
2017-07-05T23:39:53.382Z,76.93
2017-07-05T23:42:25.762Z,77.24
2017-07-05T23:44:58.179Z,76.91
2017-07-05T23:47:30.387Z,76.83
2017-07-05T23:50:02.800Z,76.98
2017-07-05T23:52:35.253Z,77.00
2017-07-05T23:55:07.616Z,77.47
2017-07-05T23:57:40.195Z,77.55
